sensor_id;sensor_type;location;lat;lon;timestamp;temperature;humidity
7044;DHT22;57890;52.36301240;9.76001620;2022-08-07T00:01:10;18.30;76.50
7044;DHT22;57890;52.36301240;9.76001620;2022-08-07T00:03:37;18.30;76.60
7044;DHT22;57890;52.36301240;9.76001620;2022-08-07T00:06:04;18.30;76.50
7044;DHT22;57890;52.36301240;9.76001620;2022-08-07T00:08:33;18.20;76.50
7044;DHT22;57890;52.36301240;9.76001620;2022-08-07T00:11:02;18.20;76.60
7044;DHT22;57890;52.36301240;9.76001620;2022-08-07T00:13:29;18.20;76.70
7044;DHT22;57890;52.36301240;9.76001620;2022-08-07T00:15:57;18.20;76.70
7044;DHT22;57890;52.36301240;9.76001620;2022-08-07T00:18:25;18.20;76.70
7044;DHT22;57890;52.36301240;9.76001620;2022-08-07T00:20:53;18.20;76.70
7044;DHT22;57890;52.36301240;9.76001620;2022-08-07T00:23:21;18.10;76.70
7044;DHT22;57890;52.36301240;9.76001620;2022-08-07T00:25:50;18.10;76.80
7044;DHT22;57890;52.36301240;9.76001620;2022-08-07T00:28:16;18.00;76.80
7044;DHT22;57890;52.36301240;9.76001620;2022-08-07T00:30:44;18.10;77.00
7044;DHT22;57890;52.36301240;9.76001620;2022-08-07T00:33:11;18.00;77.00
7044;DHT22;57890;52.36301240;9.76001620;2022-08-07T00:35:38;18.00;77.10
7044;DHT22;57890;52.36301240;9.76001620;2022-08-07T00:38:05;18.00;77.10
7044;DHT22;57890;52.36301240;9.76001620;2022-08-07T00:40:32;18.00;77.20
7044;DHT22;57890;52.36301240;9.76001620;2022-08-07T00:43:00;17.90;77.20
7044;DHT22;57890;52.36301240;9.76001620;2022-08-07T00:45:27;17.90;77.20
7044;DHT22;57890;52.36301240;9.76001620;2022-08-07T00:47:54;17.80;77.40
7044;DHT22;57890;52.36301240;9.76001620;2022-08-07T00:50:21;17.80;77.50
7044;DHT22;57890;52.36301240;9.76001620;2022-08-07T00:52:48;17.80;77.50
7044;DHT22;57890;52.36301240;9.76001620;2022-08-07T00:55:15;17.80;77.70
7044;DHT22;57890;52.36301240;9.76001620;2022-08-07T00:57:42;17.80;77.60
7044;DHT22;57890;52.36301240;9.76001620;2022-08-07T01:00:11;17.80;77.80
7044;DHT22;57890;52.36301240;9.76001620;2022-08-07T01:02:40;17.70;77.60
7044;DHT22;57890;52.36301240;9.76001620;2022-08-07T01:05:09;17.70;77.80
7044;DHT22;57890;52.36301240;9.76001620;2022-08-07T01:07:36;17.70;78.00
7044;DHT22;57890;52.36301240;9.76001620;2022-08-07T01:10:04;17.70;78.00
7044;DHT22;57890;52.36301240;9.76001620;2022-08-07T01:12:31;17.60;78.10
7044;DHT22;57890;52.36301240;9.76001620;2022-08-07T01:14:58;17.60;78.10
7044;DHT22;57890;52.36301240;9.76001620;2022-08-07T01:17:28;17.60;78.10
7044;DHT22;57890;52.36301240;9.76001620;2022-08-07T01:20:03;17.60;78.30
7044;DHT22;57890;52.36301240;9.76001620;2022-08-07T01:22:31;17.60;78.20
7044;DHT22;57890;52.36301240;9.76001620;2022-08-07T01:24:58;17.60;78.30
7044;DHT22;57890;52.36301240;9.76001620;2022-08-07T01:27:26;17.60;78.30
7044;DHT22;57890;52.36301240;9.76001620;2022-08-07T01:29:53;17.60;78.30
7044;DHT22;57890;52.36301240;9.76001620;2022-08-07T01:32:20;17.60;78.30
7044;DHT22;57890;52.36301240;9.76001620;2022-08-07T01:34:48;17.60;78.50
7044;DHT22;57890;52.36301240;9.76001620;2022-08-07T01:37:16;17.50;78.50
7044;DHT22;57890;52.36301240;9.76001620;2022-08-07T01:39:45;17.50;78.50
7044;DHT22;57890;52.36301240;9.76001620;2022-08-07T01:42:27;17.50;78.50
7044;DHT22;57890;52.36301240;9.76001620;2022-08-07T01:44:54;17.50;78.60
7044;DHT22;57890;52.36301240;9.76001620;2022-08-07T01:47:21;17.50;78.70
7044;DHT22;57890;52.36301240;9.76001620;2022-08-07T01:49:49;17.40;78.70
7044;DHT22;57890;52.36301240;9.76001620;2022-08-07T01:52:17;17.40;78.70
7044;DHT22;57890;52.36301240;9.76001620;2022-08-07T01:54:47;17.40;78.70
7044;DHT22;57890;52.36301240;9.76001620;2022-08-07T01:57:18;17.40;78.90
7044;DHT22;57890;52.36301240;9.76001620;2022-08-07T01:59:52;17.40;78.80
7044;DHT22;57890;52.36301240;9.76001620;2022-08-07T02:02:26;17.30;78.70
7044;DHT22;57890;52.36301240;9.76001620;2022-08-07T02:04:58;17.30;79.00
7044;DHT22;57890;52.36301240;9.76001620;2022-08-07T02:07:34;17.30;79.00
7044;DHT22;57890;52.36301240;9.76001620;2022-08-07T02:10:04;17.30;79.10
7044;DHT22;57890;52.36301240;9.76001620;2022-08-07T02:12:38;17.30;79.10
7044;DHT22;57890;52.36301240;9.76001620;2022-08-07T02:15:10;17.30;79.20
7044;DHT22;57890;52.36301240;9.76001620;2022-08-07T02:17:42;17.30;79.30
7044;DHT22;57890;52.36301240;9.76001620;2022-08-07T02:20:10;17.30;79.30
7044;DHT22;57890;52.36301240;9.76001620;2022-08-07T02:22:38;17.20;79.20
7044;DHT22;57890;52.36301240;9.76001620;2022-08-07T02:25:08;17.20;79.40
7044;DHT22;57890;52.36301240;9.76001620;2022-08-07T02:27:38;17.20;79.50
7044;DHT22;57890;52.36301240;9.76001620;2022-08-07T02:30:07;17.20;79.40
7044;DHT22;57890;52.36301240;9.76001620;2022-08-07T02:32:35;17.20;79.50
7044;DHT22;57890;52.36301240;9.76001620;2022-08-07T02:35:04;17.20;79.60
7044;DHT22;57890;52.36301240;9.76001620;2022-08-07T02:37:34;17.20;79.70
7044;DHT22;57890;52.36301240;9.76001620;2022-08-07T02:40:08;17.10;79.70
7044;DHT22;57890;52.36301240;9.76001620;2022-08-07T02:42:35;17.10;79.70
7044;DHT22;57890;52.36301240;9.76001620;2022-08-07T02:45:04;17.10;79.70
7044;DHT22;57890;52.36301240;9.76001620;2022-08-07T02:47:32;17.10;79.90
7044;DHT22;57890;52.36301240;9.76001620;2022-08-07T02:50:07;17.10;80.00
7044;DHT22;57890;52.36301240;9.76001620;2022-08-07T02:52:38;17.10;80.10
7044;DHT22;57890;52.36301240;9.76001620;2022-08-07T02:55:11;17.10;80.00
7044;DHT22;57890;52.36301240;9.76001620;2022-08-07T02:57:40;17.10;80.00
7044;DHT22;57890;52.36301240;9.76001620;2022-08-07T03:00:10;17.00;80.10
7044;DHT22;57890;52.36301240;9.76001620;2022-08-07T03:02:40;17.10;80.40
7044;DHT22;57890;52.36301240;9.76001620;2022-08-07T03:05:10;17.10;80.50
7044;DHT22;57890;52.36301240;9.76001620;2022-08-07T03:07:38;17.00;80.30
7044;DHT22;57890;52.36301240;9.76001620;2022-08-07T03:10:08;17.00;80.40
7044;DHT22;57890;52.36301240;9.76001620;2022-08-07T03:12:36;17.00;80.50
7044;DHT22;57890;52.36301240;9.76001620;2022-08-07T03:15:10;17.00;80.50
7044;DHT22;57890;52.36301240;9.76001620;2022-08-07T03:17:38;17.00;80.50
7044;DHT22;57890;52.36301240;9.76001620;2022-08-07T03:20:08;17.00;80.50
7044;DHT22;57890;52.36301240;9.76001620;2022-08-07T03:22:37;17.00;80.60
7044;DHT22;57890;52.36301240;9.76001620;2022-08-07T03:25:08;16.90;80.60
7044;DHT22;57890;52.36301240;9.76001620;2022-08-07T03:27:42;16.90;80.70
7044;DHT22;57890;52.36301240;9.76001620;2022-08-07T03:30:13;16.90;80.80
7044;DHT22;57890;52.36301240;9.76001620;2022-08-07T03:32:43;16.90;80.70
7044;DHT22;57890;52.36301240;9.76001620;2022-08-07T03:35:16;16.90;80.80
7044;DHT22;57890;52.36301240;9.76001620;2022-08-07T03:37:45;16.80;80.80
7044;DHT22;57890;52.36301240;9.76001620;2022-08-07T03:40:15;16.80;80.90
7044;DHT22;57890;52.36301240;9.76001620;2022-08-07T03:42:44;16.80;80.80
7044;DHT22;57890;52.36301240;9.76001620;2022-08-07T03:45:13;16.80;80.80
7044;DHT22;57890;52.36301240;9.76001620;2022-08-07T03:47:41;16.80;81.00
7044;DHT22;57890;52.36301240;9.76001620;2022-08-07T03:50:08;16.80;81.00
7044;DHT22;57890;52.36301240;9.76001620;2022-08-07T03:52:37;16.80;81.10
7044;DHT22;57890;52.36301240;9.76001620;2022-08-07T03:55:07;16.80;81.20
7044;DHT22;57890;52.36301240;9.76001620;2022-08-07T03:57:40;16.70;81.10
7044;DHT22;57890;52.36301240;9.76001620;2022-08-07T04:00:08;16.80;81.30
7044;DHT22;57890;52.36301240;9.76001620;2022-08-07T04:02:42;16.80;81.30
7044;DHT22;57890;52.36301240;9.76001620;2022-08-07T04:05:19;16.70;81.50
7044;DHT22;57890;52.36301240;9.76001620;2022-08-07T04:07:47;16.80;81.30
7044;DHT22;57890;52.36301240;9.76001620;2022-08-07T04:10:18;16.80;81.40
7044;DHT22;57890;52.36301240;9.76001620;2022-08-07T04:12:49;16.80;81.40
7044;DHT22;57890;52.36301240;9.76001620;2022-08-07T04:15:18;16.70;81.30
7044;DHT22;57890;52.36301240;9.76001620;2022-08-07T04:17:45;16.90;83.10
7044;DHT22;57890;52.36301240;9.76001620;2022-08-07T04:20:12;16.80;82.40
7044;DHT22;57890;52.36301240;9.76001620;2022-08-07T04:22:41;16.80;82.20
7044;DHT22;57890;52.36301240;9.76001620;2022-08-07T04:25:09;16.80;82.10
7044;DHT22;57890;52.36301240;9.76001620;2022-08-07T04:27:36;16.80;82.00
7044;DHT22;57890;52.36301240;9.76001620;2022-08-07T04:30:09;16.80;82.00
7044;DHT22;57890;52.36301240;9.76001620;2022-08-07T04:32:46;16.80;82.00
7044;DHT22;57890;52.36301240;9.76001620;2022-08-07T04:35:14;16.90;82.10
7044;DHT22;57890;52.36301240;9.76001620;2022-08-07T04:37:41;16.80;81.90
7044;DHT22;57890;52.36301240;9.76001620;2022-08-07T04:40:09;16.90;82.00
7044;DHT22;57890;52.36301240;9.76001620;2022-08-07T04:42:36;16.90;82.00
7044;DHT22;57890;52.36301240;9.76001620;2022-08-07T04:45:05;16.90;82.10
7044;DHT22;57890;52.36301240;9.76001620;2022-08-07T04:47:42;16.90;82.10
7044;DHT22;57890;52.36301240;9.76001620;2022-08-07T04:50:15;16.90;82.20
7044;DHT22;57890;52.36301240;9.76001620;2022-08-07T04:53:06;16.90;82.20
7044;DHT22;57890;52.36301240;9.76001620;2022-08-07T04:55:39;16.90;82.20
7044;DHT22;57890;52.36301240;9.76001620;2022-08-07T04:58:13;16.90;82.10
7044;DHT22;57890;52.36301240;9.76001620;2022-08-07T05:00:48;17.00;82.30
7044;DHT22;57890;52.36301240;9.76001620;2022-08-07T05:03:22;17.00;82.30
7044;DHT22;57890;52.36301240;9.76001620;2022-08-07T05:05:56;17.00;82.30
7044;DHT22;57890;52.36301240;9.76001620;2022-08-07T05:08:35;17.00;82.30
7044;DHT22;57890;52.36301240;9.76001620;2022-08-07T05:11:09;17.00;82.30
7044;DHT22;57890;52.36301240;9.76001620;2022-08-07T05:13:43;17.00;82.30
7044;DHT22;57890;52.36301240;9.76001620;2022-08-07T05:16:13;17.00;82.20
7044;DHT22;57890;52.36301240;9.76001620;2022-08-07T05:18:47;17.00;82.10
7044;DHT22;57890;52.36301240;9.76001620;2022-08-07T05:21:18;17.00;82.20
7044;DHT22;57890;52.36301240;9.76001620;2022-08-07T05:23:49;17.10;82.10
7044;DHT22;57890;52.36301240;9.76001620;2022-08-07T05:26:19;17.00;81.90
7044;DHT22;57890;52.36301240;9.76001620;2022-08-07T05:28:51;17.10;81.90
7044;DHT22;57890;52.36301240;9.76001620;2022-08-07T05:31:25;17.00;81.70
7044;DHT22;57890;52.36301240;9.76001620;2022-08-07T05:33:57;17.00;81.60
7044;DHT22;57890;52.36301240;9.76001620;2022-08-07T05:36:25;17.10;81.70
7044;DHT22;57890;52.36301240;9.76001620;2022-08-07T05:38:54;17.10;81.60
7044;DHT22;57890;52.36301240;9.76001620;2022-08-07T05:41:22;17.10;81.50
7044;DHT22;57890;52.36301240;9.76001620;2022-08-07T05:43:53;17.10;81.40
7044;DHT22;57890;52.36301240;9.76001620;2022-08-07T05:46:22;17.20;81.60
7044;DHT22;57890;52.36301240;9.76001620;2022-08-07T05:48:50;17.20;81.60
7044;DHT22;57890;52.36301240;9.76001620;2022-08-07T05:51:19;17.20;81.60
7044;DHT22;57890;52.36301240;9.76001620;2022-08-07T05:53:47;17.30;81.70
7044;DHT22;57890;52.36301240;9.76001620;2022-08-07T05:56:15;17.30;81.60
7044;DHT22;57890;52.36301240;9.76001620;2022-08-07T05:58:47;17.40;81.60
7044;DHT22;57890;52.36301240;9.76001620;2022-08-07T06:01:17;17.40;81.70
7044;DHT22;57890;52.36301240;9.76001620;2022-08-07T06:03:50;17.40;81.70
7044;DHT22;57890;52.36301240;9.76001620;2022-08-07T06:06:20;17.40;81.60
7044;DHT22;57890;52.36301240;9.76001620;2022-08-07T06:08:53;17.50;81.70
7044;DHT22;57890;52.36301240;9.76001620;2022-08-07T06:11:21;17.50;81.70
7044;DHT22;57890;52.36301240;9.76001620;2022-08-07T06:13:49;17.60;82.50
7044;DHT22;57890;52.36301240;9.76001620;2022-08-07T06:16:17;17.60;81.80
7044;DHT22;57890;52.36301240;9.76001620;2022-08-07T06:18:46;17.70;81.80
7044;DHT22;57890;52.36301240;9.76001620;2022-08-07T06:21:15;17.80;81.80
7044;DHT22;57890;52.36301240;9.76001620;2022-08-07T06:23:44;17.80;81.70
7044;DHT22;57890;52.36301240;9.76001620;2022-08-07T06:26:12;17.90;81.70
7044;DHT22;57890;52.36301240;9.76001620;2022-08-07T06:28:50;17.90;81.50
7044;DHT22;57890;52.36301240;9.76001620;2022-08-07T06:31:17;18.00;81.60
7044;DHT22;57890;52.36301240;9.76001620;2022-08-07T06:33:45;18.00;81.40
7044;DHT22;57890;52.36301240;9.76001620;2022-08-07T06:36:12;18.00;81.40
7044;DHT22;57890;52.36301240;9.76001620;2022-08-07T06:38:54;18.10;81.50
7044;DHT22;57890;52.36301240;9.76001620;2022-08-07T06:41:25;18.10;81.50
7044;DHT22;57890;52.36301240;9.76001620;2022-08-07T06:43:54;18.20;81.60
7044;DHT22;57890;52.36301240;9.76001620;2022-08-07T06:46:24;18.20;81.50
7044;DHT22;57890;52.36301240;9.76001620;2022-08-07T06:48:52;18.20;81.50
7044;DHT22;57890;52.36301240;9.76001620;2022-08-07T06:51:25;18.30;81.50
7044;DHT22;57890;52.36301240;9.76001620;2022-08-07T06:53:56;18.30;81.50
7044;DHT22;57890;52.36301240;9.76001620;2022-08-07T06:56:29;18.40;81.50
7044;DHT22;57890;52.36301240;9.76001620;2022-08-07T06:59:15;18.40;81.40
7044;DHT22;57890;52.36301240;9.76001620;2022-08-07T07:01:48;18.50;81.30
7044;DHT22;57890;52.36301240;9.76001620;2022-08-07T07:04:17;18.50;81.40
7044;DHT22;57890;52.36301240;9.76001620;2022-08-07T07:06:44;18.60;81.60
7044;DHT22;57890;52.36301240;9.76001620;2022-08-07T07:09:24;18.60;81.40
7044;DHT22;57890;52.36301240;9.76001620;2022-08-07T07:12:11;18.70;81.70
7044;DHT22;57890;52.36301240;9.76001620;2022-08-07T07:14:46;18.70;81.90
7044;DHT22;57890;52.36301240;9.76001620;2022-08-07T07:17:16;18.70;81.70
7044;DHT22;57890;52.36301240;9.76001620;2022-08-07T07:19:47;18.80;81.60
7044;DHT22;57890;52.36301240;9.76001620;2022-08-07T07:22:16;18.90;81.60
7044;DHT22;57890;52.36301240;9.76001620;2022-08-07T07:24:46;18.90;81.40
7044;DHT22;57890;52.36301240;9.76001620;2022-08-07T07:27:15;18.90;81.50
7044;DHT22;57890;52.36301240;9.76001620;2022-08-07T07:29:46;19.00;81.60
7044;DHT22;57890;52.36301240;9.76001620;2022-08-07T07:32:15;19.00;81.60
7044;DHT22;57890;52.36301240;9.76001620;2022-08-07T07:34:45;19.10;81.40
7044;DHT22;57890;52.36301240;9.76001620;2022-08-07T07:37:13;19.10;80.70
7044;DHT22;57890;52.36301240;9.76001620;2022-08-07T07:39:43;19.20;80.60
7044;DHT22;57890;52.36301240;9.76001620;2022-08-07T07:42:12;19.20;80.80
7044;DHT22;57890;52.36301240;9.76001620;2022-08-07T07:44:43;19.30;81.20
7044;DHT22;57890;52.36301240;9.76001620;2022-08-07T07:47:13;19.40;81.70
7044;DHT22;57890;52.36301240;9.76001620;2022-08-07T07:49:42;19.40;80.90
7044;DHT22;57890;52.36301240;9.76001620;2022-08-07T07:52:12;19.50;80.80
7044;DHT22;57890;52.36301240;9.76001620;2022-08-07T07:54:41;19.50;80.60
7044;DHT22;57890;52.36301240;9.76001620;2022-08-07T07:57:09;19.50;80.30
7044;DHT22;57890;52.36301240;9.76001620;2022-08-07T07:59:39;19.60;80.30
7044;DHT22;57890;52.36301240;9.76001620;2022-08-07T08:02:08;19.60;80.70
7044;DHT22;57890;52.36301240;9.76001620;2022-08-07T08:04:37;19.60;80.50
7044;DHT22;57890;52.36301240;9.76001620;2022-08-07T08:07:07;19.70;81.00
7044;DHT22;57890;52.36301240;9.76001620;2022-08-07T08:09:35;19.70;80.50
7044;DHT22;57890;52.36301240;9.76001620;2022-08-07T08:12:05;19.80;80.30
7044;DHT22;57890;52.36301240;9.76001620;2022-08-07T08:14:32;19.80;80.10
7044;DHT22;57890;52.36301240;9.76001620;2022-08-07T08:17:01;19.80;79.80
7044;DHT22;57890;52.36301240;9.76001620;2022-08-07T08:19:29;19.90;79.80
7044;DHT22;57890;52.36301240;9.76001620;2022-08-07T08:21:58;19.90;80.10
7044;DHT22;57890;52.36301240;9.76001620;2022-08-07T08:24:45;20.00;80.20
7044;DHT22;57890;52.36301240;9.76001620;2022-08-07T08:27:33;20.00;79.70
7044;DHT22;57890;52.36301240;9.76001620;2022-08-07T08:30:03;20.10;79.70
7044;DHT22;57890;52.36301240;9.76001620;2022-08-07T08:32:37;20.10;79.70
7044;DHT22;57890;52.36301240;9.76001620;2022-08-07T08:35:10;20.20;79.90
7044;DHT22;57890;52.36301240;9.76001620;2022-08-07T08:37:38;20.20;80.20
7044;DHT22;57890;52.36301240;9.76001620;2022-08-07T08:42:56;20.40;79.80
7044;DHT22;57890;52.36301240;9.76001620;2022-08-07T08:45:30;20.40;79.30
7044;DHT22;57890;52.36301240;9.76001620;2022-08-07T08:48:05;20.40;78.80
7044;DHT22;57890;52.36301240;9.76001620;2022-08-07T08:50:44;20.40;78.60
7044;DHT22;57890;52.36301240;9.76001620;2022-08-07T08:53:18;20.40;78.30
7044;DHT22;57890;52.36301240;9.76001620;2022-08-07T08:55:53;20.50;78.30
7044;DHT22;57890;52.36301240;9.76001620;2022-08-07T08:58:28;20.50;78.30
7044;DHT22;57890;52.36301240;9.76001620;2022-08-07T09:01:01;20.60;78.60
7044;DHT22;57890;52.36301240;9.76001620;2022-08-07T09:03:33;20.60;78.70
7044;DHT22;57890;52.36301240;9.76001620;2022-08-07T09:06:08;20.60;78.80
7044;DHT22;57890;52.36301240;9.76001620;2022-08-07T09:08:42;20.70;78.60
7044;DHT22;57890;52.36301240;9.76001620;2022-08-07T09:11:17;20.70;78.30
7044;DHT22;57890;52.36301240;9.76001620;2022-08-07T09:14:00;20.70;78.00
7044;DHT22;57890;52.36301240;9.76001620;2022-08-07T09:16:38;20.80;78.10
7044;DHT22;57890;52.36301240;9.76001620;2022-08-07T09:19:19;20.80;77.60
7044;DHT22;57890;52.36301240;9.76001620;2022-08-07T09:21:52;20.80;77.10
7044;DHT22;57890;52.36301240;9.76001620;2022-08-07T09:24:32;20.90;77.50
7044;DHT22;57890;52.36301240;9.76001620;2022-08-07T09:27:11;20.90;77.90
7044;DHT22;57890;52.36301240;9.76001620;2022-08-07T09:29:54;20.90;76.90
7044;DHT22;57890;52.36301240;9.76001620;2022-08-07T09:32:30;21.00;76.40
7044;DHT22;57890;52.36301240;9.76001620;2022-08-07T09:35:06;21.00;76.10
7044;DHT22;57890;52.36301240;9.76001620;2022-08-07T09:37:41;21.00;75.80
7044;DHT22;57890;52.36301240;9.76001620;2022-08-07T09:40:16;21.00;75.70
7044;DHT22;57890;52.36301240;9.76001620;2022-08-07T09:42:50;21.00;76.10
7044;DHT22;57890;52.36301240;9.76001620;2022-08-07T09:45:26;21.00;75.90
7044;DHT22;57890;52.36301240;9.76001620;2022-08-07T09:48:05;21.10;76.20
7044;DHT22;57890;52.36301240;9.76001620;2022-08-07T09:50:49;21.10;75.80
7044;DHT22;57890;52.36301240;9.76001620;2022-08-07T09:53:20;21.10;75.20
7044;DHT22;57890;52.36301240;9.76001620;2022-08-07T09:56:03;21.10;75.30
7044;DHT22;57890;52.36301240;9.76001620;2022-08-07T09:58:59;21.10;74.60
7044;DHT22;57890;52.36301240;9.76001620;2022-08-07T10:01:39;21.10;75.40
7044;DHT22;57890;52.36301240;9.76001620;2022-08-07T10:04:20;21.20;75.30
7044;DHT22;57890;52.36301240;9.76001620;2022-08-07T10:07:04;21.20;75.00
7044;DHT22;57890;52.36301240;9.76001620;2022-08-07T10:09:46;21.20;74.60
7044;DHT22;57890;52.36301240;9.76001620;2022-08-07T10:12:38;21.20;74.60
7044;DHT22;57890;52.36301240;9.76001620;2022-08-07T10:15:35;21.40;70.30
7044;DHT22;57890;52.36301240;9.76001620;2022-08-07T10:18:22;21.40;72.20
7044;DHT22;57890;52.36301240;9.76001620;2022-08-07T10:21:01;21.50;73.30
7044;DHT22;57890;52.36301240;9.76001620;2022-08-07T10:23:48;21.50;73.60
7044;DHT22;57890;52.36301240;9.76001620;2022-08-07T10:26:31;21.50;74.00
7044;DHT22;57890;52.36301240;9.76001620;2022-08-07T10:29:16;21.50;73.70
7044;DHT22;57890;52.36301240;9.76001620;2022-08-07T10:31:52;21.60;72.70
7044;DHT22;57890;52.36301240;9.76001620;2022-08-07T10:34:32;21.60;71.50
7044;DHT22;57890;52.36301240;9.76001620;2022-08-07T10:37:17;21.60;71.20
7044;DHT22;57890;52.36301240;9.76001620;2022-08-07T10:39:57;21.60;71.20
7044;DHT22;57890;52.36301240;9.76001620;2022-08-07T10:42:31;21.60;71.20
7044;DHT22;57890;52.36301240;9.76001620;2022-08-07T10:45:06;21.60;71.60
7044;DHT22;57890;52.36301240;9.76001620;2022-08-07T10:47:41;21.60;72.10
7044;DHT22;57890;52.36301240;9.76001620;2022-08-07T10:50:13;21.70;72.40
7044;DHT22;57890;52.36301240;9.76001620;2022-08-07T10:52:52;21.70;72.20
7044;DHT22;57890;52.36301240;9.76001620;2022-08-07T10:55:30;21.70;72.00
7044;DHT22;57890;52.36301240;9.76001620;2022-08-07T10:58:08;21.80;71.80
7044;DHT22;57890;52.36301240;9.76001620;2022-08-07T11:00:47;21.80;72.00
7044;DHT22;57890;52.36301240;9.76001620;2022-08-07T11:03:25;21.80;71.90
7044;DHT22;57890;52.36301240;9.76001620;2022-08-07T11:06:05;21.80;71.60
7044;DHT22;57890;52.36301240;9.76001620;2022-08-07T11:08:38;21.90;71.50
7044;DHT22;57890;52.36301240;9.76001620;2022-08-07T11:11:10;21.90;71.80
7044;DHT22;57890;52.36301240;9.76001620;2022-08-07T11:13:44;21.90;71.60
7044;DHT22;57890;52.36301240;9.76001620;2022-08-07T11:16:18;21.90;71.80
7044;DHT22;57890;52.36301240;9.76001620;2022-08-07T11:18:50;21.90;72.00
7044;DHT22;57890;52.36301240;9.76001620;2022-08-07T11:21:26;22.00;72.00
7044;DHT22;57890;52.36301240;9.76001620;2022-08-07T11:23:58;22.00;72.10
7044;DHT22;57890;52.36301240;9.76001620;2022-08-07T11:26:32;22.10;72.20
7044;DHT22;57890;52.36301240;9.76001620;2022-08-07T11:29:05;22.10;72.00
7044;DHT22;57890;52.36301240;9.76001620;2022-08-07T11:31:38;22.20;72.30
7044;DHT22;57890;52.36301240;9.76001620;2022-08-07T11:34:15;22.30;72.10
7044;DHT22;57890;52.36301240;9.76001620;2022-08-07T11:36:52;22.30;71.90
7044;DHT22;57890;52.36301240;9.76001620;2022-08-07T11:39:31;22.30;71.50
7044;DHT22;57890;52.36301240;9.76001620;2022-08-07T11:42:13;22.30;71.20
7044;DHT22;57890;52.36301240;9.76001620;2022-08-07T11:44:48;22.40;71.30
7044;DHT22;57890;52.36301240;9.76001620;2022-08-07T11:47:24;22.50;71.40
7044;DHT22;57890;52.36301240;9.76001620;2022-08-07T11:50:02;22.50;71.30
7044;DHT22;57890;52.36301240;9.76001620;2022-08-07T11:52:44;22.60;71.50
7044;DHT22;57890;52.36301240;9.76001620;2022-08-07T11:55:25;22.70;71.30
7044;DHT22;57890;52.36301240;9.76001620;2022-08-07T11:58:07;22.70;70.80
7044;DHT22;57890;52.36301240;9.76001620;2022-08-07T12:00:47;22.70;70.70
7044;DHT22;57890;52.36301240;9.76001620;2022-08-07T12:03:43;22.80;71.00
7044;DHT22;57890;52.36301240;9.76001620;2022-08-07T12:06:33;22.90;70.90
7044;DHT22;57890;52.36301240;9.76001620;2022-08-07T12:09:08;23.00;71.20
7044;DHT22;57890;52.36301240;9.76001620;2022-08-07T12:11:41;23.00;71.20
7044;DHT22;57890;52.36301240;9.76001620;2022-08-07T12:14:16;23.10;71.00
7044;DHT22;57890;52.36301240;9.76001620;2022-08-07T12:16:47;23.10;70.80
7044;DHT22;57890;52.36301240;9.76001620;2022-08-07T12:19:26;23.20;70.80
7044;DHT22;57890;52.36301240;9.76001620;2022-08-07T12:22:09;23.30;70.40
7044;DHT22;57890;52.36301240;9.76001620;2022-08-07T12:24:44;23.30;70.50
7044;DHT22;57890;52.36301240;9.76001620;2022-08-07T12:27:36;23.40;70.80
7044;DHT22;57890;52.36301240;9.76001620;2022-08-07T12:30:07;23.50;71.20
7044;DHT22;57890;52.36301240;9.76001620;2022-08-07T12:32:39;23.50;70.70
7044;DHT22;57890;52.36301240;9.76001620;2022-08-07T12:35:09;23.60;70.50
7044;DHT22;57890;52.36301240;9.76001620;2022-08-07T12:37:39;23.60;70.60
7044;DHT22;57890;52.36301240;9.76001620;2022-08-07T12:40:08;23.70;70.40
7044;DHT22;57890;52.36301240;9.76001620;2022-08-07T12:42:37;23.70;70.50
7044;DHT22;57890;52.36301240;9.76001620;2022-08-07T12:45:10;23.80;70.60
7044;DHT22;57890;52.36301240;9.76001620;2022-08-07T12:47:44;23.90;70.30
7044;DHT22;57890;52.36301240;9.76001620;2022-08-07T12:50:19;23.90;70.10
7044;DHT22;57890;52.36301240;9.76001620;2022-08-07T12:52:53;24.00;69.70
7044;DHT22;57890;52.36301240;9.76001620;2022-08-07T12:55:30;24.10;69.90
7044;DHT22;57890;52.36301240;9.76001620;2022-08-07T12:57:59;24.20;70.40
7044;DHT22;57890;52.36301240;9.76001620;2022-08-07T13:00:37;24.30;70.40
7044;DHT22;57890;52.36301240;9.76001620;2022-08-07T13:03:18;24.40;71.20
7044;DHT22;57890;52.36301240;9.76001620;2022-08-07T13:05:57;25.20;71.60
7044;DHT22;57890;52.36301240;9.76001620;2022-08-07T13:08:42;26.60;70.40
7044;DHT22;57890;52.36301240;9.76001620;2022-08-07T13:11:28;27.80;69.10
7044;DHT22;57890;52.36301240;9.76001620;2022-08-07T13:14:06;28.80;68.10
7044;DHT22;57890;52.36301240;9.76001620;2022-08-07T13:16:40;29.80;67.00
7044;DHT22;57890;52.36301240;9.76001620;2022-08-07T13:19:20;30.60;65.40
7044;DHT22;57890;52.36301240;9.76001620;2022-08-07T13:21:55;31.40;65.00
7044;DHT22;57890;52.36301240;9.76001620;2022-08-07T13:24:26;32.00;64.20
7044;DHT22;57890;52.36301240;9.76001620;2022-08-07T13:27:02;32.60;64.10
7044;DHT22;57890;52.36301240;9.76001620;2022-08-07T13:29:37;33.10;63.10
7044;DHT22;57890;52.36301240;9.76001620;2022-08-07T13:32:13;33.70;62.80
7044;DHT22;57890;52.36301240;9.76001620;2022-08-07T13:34:45;34.20;62.20
7044;DHT22;57890;52.36301240;9.76001620;2022-08-07T13:37:19;34.40;61.70
7044;DHT22;57890;52.36301240;9.76001620;2022-08-07T13:39:58;34.80;61.20
7044;DHT22;57890;52.36301240;9.76001620;2022-08-07T13:42:29;35.20;60.30
7044;DHT22;57890;52.36301240;9.76001620;2022-08-07T13:44:58;35.50;60.00
7044;DHT22;57890;52.36301240;9.76001620;2022-08-07T13:47:31;35.90;59.40
7044;DHT22;57890;52.36301240;9.76001620;2022-08-07T13:50:02;36.30;58.80
7044;DHT22;57890;52.36301240;9.76001620;2022-08-07T13:52:30;36.70;58.20
7044;DHT22;57890;52.36301240;9.76001620;2022-08-07T13:54:58;37.20;57.50
7044;DHT22;57890;52.36301240;9.76001620;2022-08-07T13:57:27;37.50;56.50
7044;DHT22;57890;52.36301240;9.76001620;2022-08-07T13:59:55;37.70;56.60
7044;DHT22;57890;52.36301240;9.76001620;2022-08-07T14:02:27;37.80;55.30
7044;DHT22;57890;52.36301240;9.76001620;2022-08-07T14:05:00;37.90;55.20
7044;DHT22;57890;52.36301240;9.76001620;2022-08-07T14:07:30;38.00;54.70